Time;durP1;ratioP1;P1;durP2;ratioP2;P2;SDS_P1;SDS_P2;PMS_P1;PMS_P2;Temp;Humidity;BMP_temperature;BMP_pressure;BME280_temperature;BME280_humidity;BME280_pressure;Samples;Min_cycle;Max_cycle;Signal;HPM_P1;HPM_P2
2022/06/19 00:02:57;;;;;;;4.18;3.60;;;22.20;99.60;;;;;;10472696;28;20206;-86
2022/06/19 00:08:00;;;;;;;4.40;4.00;;;22.10;99.60;;;;;;10473339;28;20287;-86
2022/06/19 00:13:03;;;;;;;5.15;3.78;;;22.10;99.70;;;;;;10491564;28;20237;-86
2022/06/19 00:18:05;;;;;;;5.53;3.15;;;22.10;99.70;;;;;;10473458;28;20254;-85
2022/06/19 00:23:13;;;;;;;3.85;3.55;;;22.10;99.70;;;;;;10517655;28;20725;-86
2022/06/19 00:28:15;;;;;;;4.35;3.95;;;22.10;99.70;;;;;;10534662;28;20669;-86
2022/06/19 00:33:19;;;;;;;4.15;3.75;;;22.10;99.80;;;;;;10542430;28;20604;-85
2022/06/19 00:38:22;;;;;;;3.65;3.35;;;22.10;99.80;;;;;;10539541;28;20248;-86
2022/06/19 00:43:25;;;;;;;5.65;4.07;;;22.00;99.80;;;;;;10481547;28;20613;-86
2022/06/19 00:48:31;;;;;;;3.92;3.63;;;22.10;99.90;;;;;;10499410;28;20273;-85
2022/06/19 00:53:46;;;;;;;3.70;3.40;;;22.10;99.90;;;;;;10481013;28;20210;-86
2022/06/19 00:58:52;;;;;;;4.10;3.65;;;22.10;99.90;;;;;;10517066;28;20249;-86
2022/06/19 01:04:06;;;;;;;3.80;3.50;;;21.90;99.90;;;;;;10523413;28;20664;-86
2022/06/19 01:09:09;;;;;;;4.53;3.88;;;22.00;99.90;;;;;;10505551;28;20579;-86
2022/06/19 01:14:17;;;;;;;3.67;3.42;;;22.00;99.90;;;;;;10539821;28;20254;-86
2022/06/19 01:19:25;;;;;;;4.05;3.75;;;21.90;99.90;;;;;;10508806;28;20625;-86
2022/06/19 01:25:06;;;;;;;3.80;3.50;;;22.00;99.90;;;;;;10480144;28;20203;-86
2022/06/19 01:30:08;;;;;;;3.70;3.40;;;22.00;99.90;;;;;;10515102;28;20241;-86
2022/06/19 01:35:12;;;;;;;3.85;3.55;;;21.90;99.90;;;;;;10502407;28;20604;-86
2022/06/19 01:40:28;;;;;;;4.05;3.75;;;21.90;99.90;;;;;;10497056;28;20721;-86
2022/06/19 01:45:32;;;;;;;3.75;3.45;;;21.90;99.90;;;;;;10495059;28;20226;-86
2022/06/19 01:50:35;;;;;;;4.95;3.80;;;21.90;99.90;;;;;;10539161;28;20247;-86
2022/06/19 01:55:38;;;;;;;4.10;3.80;;;21.90;99.90;;;;;;10539477;28;20220;-86
2022/06/19 02:00:43;;;;;;;3.55;3.33;;;21.90;99.90;;;;;;10500999;28;20229;-86
2022/06/19 02:05:46;;;;;;;3.72;3.42;;;21.90;99.90;;;;;;10497002;28;20240;-86
2022/06/19 02:10:50;;;;;;;3.85;3.55;;;21.80;99.90;;;;;;10513513;28;20190;-86
2022/06/19 02:15:53;;;;;;;3.80;3.50;;;21.80;99.90;;;;;;10484837;28;20933;-86
2022/06/19 02:20:56;;;;;;;4.20;3.80;;;21.70;99.90;;;;;;10520383;28;20198;-86
2022/06/19 02:26:00;;;;;;;4.63;3.83;;;21.70;99.90;;;;;;10537557;28;20286;-86
2022/06/19 02:31:06;;;;;;;5.18;3.65;;;21.80;99.90;;;;;;10493011;28;20613;-86
2022/06/19 02:36:40;;;;;;;4.63;3.97;;;21.80;99.90;;;;;;10477451;28;20682;-86
2022/06/19 02:41:49;;;;;;;4.00;3.70;;;21.70;99.90;;;;;;10494643;28;20303;-86
2022/06/19 02:46:51;;;;;;;4.30;3.90;;;21.70;99.90;;;;;;10494918;28;20233;-86
2022/06/19 02:51:54;;;;;;;4.88;3.58;;;21.70;99.90;;;;;;10493496;28;20610;-86
2022/06/19 02:56:57;;;;;;;4.90;3.90;;;21.70;99.90;;;;;;10494222;28;20690;-86
2022/06/19 03:02:01;;;;;;;4.07;3.78;;;21.80;99.90;;;;;;10475636;28;20206;-86
2022/06/19 03:07:04;;;;;;;3.60;3.30;;;21.80;99.90;;;;;;10476449;28;20214;-86
2022/06/19 03:12:09;;;;;;;4.50;4.10;;;21.80;99.90;;;;;;10493482;28;20603;-86
2022/06/19 03:17:19;;;;;;;4.00;3.70;;;21.80;99.90;;;;;;10475304;28;20304;-86
2022/06/19 03:22:29;;;;;;;4.22;3.92;;;21.80;99.90;;;;;;10493815;28;20222;-86
2022/06/19 03:27:31;;;;;;;3.70;3.45;;;21.80;99.90;;;;;;10493595;28;20622;-86
2022/06/19 03:32:34;;;;;;;4.07;3.78;;;21.90;99.90;;;;;;10475850;28;20226;-86
2022/06/19 03:37:36;;;;;;;4.13;3.78;;;21.90;99.90;;;;;;10509695;28;20682;-85
2022/06/19 03:42:39;;;;;;;4.05;3.65;;;21.90;99.90;;;;;;10534534;28;20318;-85
2022/06/19 03:47:41;;;;;;;4.00;3.67;;;21.90;99.90;;;;;;10516844;28;20225;-86
2022/06/19 03:52:44;;;;;;;4.07;3.70;;;22.00;99.90;;;;;;10514958;28;20740;-86
2022/06/19 03:57:47;;;;;;;4.20;3.80;;;22.00;99.90;;;;;;10474798;28;20246;-85
2022/06/19 04:02:49;;;;;;;3.92;3.63;;;22.00;99.90;;;;;;10493027;28;20268;-86
2022/06/19 04:07:52;;;;;;;3.60;3.30;;;22.10;99.90;;;;;;10510859;28;20617;-86
2022/06/19 04:12:55;;;;;;;4.05;3.75;;;22.10;99.90;;;;;;10534023;28;20614;-85
2022/06/19 04:17:59;;;;;;;3.95;3.63;;;22.10;99.90;;;;;;10491807;28;20639;-86
2022/06/19 04:23:01;;;;;;;3.88;3.58;;;22.20;99.90;;;;;;10474751;28;20199;-86
2022/06/19 04:28:04;;;;;;;4.18;3.80;;;22.20;99.90;;;;;;10491872;28;20202;-85
2022/06/19 04:33:06;;;;;;;4.07;3.60;;;22.20;99.90;;;;;;10473051;28;20632;-86
2022/06/19 04:38:09;;;;;;;3.85;3.55;;;22.30;99.70;;;;;;10491787;28;20253;-86
2022/06/19 04:43:19;;;;;;;4.05;3.75;;;22.30;99.70;;;;;;10473346;28;20230;-85
2022/06/19 04:48:22;;;;;;;4.57;4.22;;;22.30;99.60;;;;;;10473431;28;20271;-86
2022/06/19 04:53:25;;;;;;;4.07;3.67;;;22.30;99.50;;;;;;10473633;28;20226;-86
2022/06/19 04:58:28;;;;;;;4.25;3.85;;;22.40;99.50;;;;;;10491433;28;20315;-86
2022/06/19 05:03:30;;;;;;;3.75;3.45;;;22.40;99.90;;;;;;10472827;28;20218;-86
2022/06/19 05:08:37;;;;;;;4.22;3.92;;;22.40;99.60;;;;;;10490769;28;20202;-86
2022/06/19 05:13:41;;;;;;;3.63;3.30;;;22.40;99.70;;;;;;10490655;28;20268;-86
2022/06/19 05:18:45;;;;;;;3.65;3.35;;;22.50;99.50;;;;;;10466279;28;20274;-86
2022/06/19 05:23:55;;;;;;;4.45;4.05;;;22.50;99.90;;;;;;10437718;28;20253;-86
2022/06/19 05:28:59;;;;;;;4.13;3.72;;;22.40;99.90;;;;;;10421255;28;20242;-86
2022/06/19 05:34:01;;;;;;;4.03;3.63;;;22.50;99.90;;;;;;10438525;28;20238;-87
2022/06/19 05:39:10;;;;;;;5.50;3.53;;;22.60;99.70;;;;;;10458759;28;20674;-87
2022/06/19 05:44:14;;;;;;;4.07;3.60;;;22.60;99.90;;;;;;10480253;28;20234;-86
2022/06/19 05:49:17;;;;;;;4.25;3.85;;;22.60;99.90;;;;;;10497073;28;20624;-87
2022/06/19 05:54:19;;;;;;;6.97;6.35;;;22.70;99.90;;;;;;10496679;28;20697;-87
2022/06/19 05:59:22;;;;;;;4.97;4.47;;;22.70;99.90;;;;;;10493283;28;20250;-86
2022/06/19 06:04:26;;;;;;;4.25;3.85;;;22.70;99.90;;;;;;10498422;28;20202;-86
2022/06/19 06:09:29;;;;;;;6.05;5.45;;;22.70;99.90;;;;;;10478659;28;20268;-87
2022/06/19 06:14:32;;;;;;;4.35;4.00;;;22.90;99.90;;;;;;10495962;28;20206;-87
2022/06/19 06:19:35;;;;;;;4.38;4.07;;;22.90;99.90;;;;;;10471849;28;20304;-87
2022/06/19 06:24:37;;;;;;;5.88;4.60;;;23.00;99.90;;;;;;10463367;28;20244;-87
2022/06/19 06:29:40;;;;;;;4.07;3.78;;;23.10;99.90;;;;;;10469680;28;20207;-87
2022/06/19 06:34:43;;;;;;;4.00;3.63;;;23.10;99.40;;;;;;10443946;28;20238;-86
2022/06/19 06:39:45;;;;;;;5.55;4.80;;;23.20;99.40;;;;;;10437577;28;20606;-88
2022/06/19 06:44:48;;;;;;;5.13;4.55;;;23.30;99.90;;;;;;10468615;28;20237;-87
2022/06/19 06:49:51;;;;;;;6.70;6.03;;;23.40;99.90;;;;;;10453493;28;20229;-87
2022/06/19 06:54:53;;;;;;;7.15;5.05;;;23.70;99.90;;;;;;10453687;28;20225;-86
2022/06/19 06:59:56;;;;;;;6.22;5.40;;;23.80;99.90;;;;;;10470096;28;20768;-88
2022/06/19 07:04:58;;;;;;;10.10;7.22;;;23.90;99.90;;;;;;10496387;28;20546;-88
2022/06/19 07:10:01;;;;;;;7.20;5.50;;;24.10;99.90;;;;;;10479202;28;20198;-89
2022/06/19 07:15:04;;;;;;;11.00;6.72;;;24.20;99.90;;;;;;10495213;28;20260;-90
2022/06/19 07:20:08;;;;;;;5.40;4.90;;;24.00;99.90;;;;;;10492283;28;20244;-91
2022/06/19 07:25:20;;;;;;;7.65;6.25;;;24.10;99.90;;;;;;10493753;28;20943;-91
2022/06/19 07:30:25;;;;;;;4.70;4.30;;;24.40;99.90;;;;;;10452211;28;20234;-91
2022/06/19 07:35:28;;;;;;;4.75;4.35;;;24.60;99.80;;;;;;10454337;28;20544;-90
2022/06/19 07:40:31;;;;;;;5.57;5.03;;;24.50;99.90;;;;;;10450854;28;20698;-90
2022/06/19 07:45:34;;;;;;;6.82;5.25;;;24.40;99.90;;;;;;10460984;28;20230;-90
2022/06/19 07:50:37;;;;;;;5.55;5.05;;;24.70;99.90;;;;;;10451680;28;20225;-90
2022/06/19 07:55:40;;;;;;;5.28;4.78;;;24.90;99.70;;;;;;10475119;28;20605;-92
2022/06/19 08:00:43;;;;;;;5.00;4.55;;;24.60;99.90;;;;;;10489129;28;20241;-91
2022/06/19 08:05:46;;;;;;;6.15;4.53;;;24.70;99.90;;;;;;10472393;28;20256;-90
2022/06/19 08:10:51;;;;;;;7.82;5.72;;;25.10;99.90;;;;;;10493060;28;20552;-91
2022/06/19 08:15:59;;;;;;;6.40;4.70;;;25.30;99.90;;;;;;10457135;28;20199;-91
2022/06/19 08:21:02;;;;;;;5.85;4.72;;;25.10;98.50;;;;;;10452052;28;20757;-91
2022/06/19 08:26:05;;;;;;;9.63;5.15;;;24.80;99.90;;;;;;10433559;28;20571;-91
2022/06/19 08:31:07;;;;;;;8.43;5.40;;;25.10;99.90;;;;;;10434164;28;20215;-91
2022/06/19 08:36:11;;;;;;;8.20;5.85;;;25.00;99.90;;;;;;10460747;28;20688;-91
2022/06/19 08:41:39;;;;;;;5.57;4.80;;;24.90;99.90;;;;;;10456436;28;20233;-90
2022/06/19 08:47:00;;;;;;;5.20;4.80;;;24.50;99.50;;;;;;10481744;28;20259;-91
2022/06/19 08:52:04;;;;;;;8.40;5.25;;;24.70;99.40;;;;;;10481356;28;20186;-90
2022/06/19 08:57:16;;;;;;;6.30;4.20;;;24.80;99.90;;;;;;10490171;28;20683;-92
2022/06/19 09:02:28;;;;;;;5.10;4.60;;;24.90;99.90;;;;;;10501110;28;20256;-92
2022/06/19 09:07:36;;;;;;;5.30;4.88;;;24.20;99.90;;;;;;10482217;28;20206;-92
2022/06/19 09:13:09;;;;;;;6.93;5.78;;;24.40;99.90;;;;;;10498442;28;20287;-92
2022/06/19 09:18:38;;;;;;;5.78;5.28;;;24.50;99.90;;;;;;10480495;28;20253;-91
2022/06/19 09:24:09;;;;;;;6.82;5.55;;;24.60;99.90;;;;;;10480100;28;20628;-91
2022/06/19 09:29:42;;;;;;;10.55;5.30;;;24.80;99.20;;;;;;10475894;28;20234;-91
2022/06/19 09:35:00;;;;;;;6.55;5.13;;;24.90;99.90;;;;;;10438077;28;20265;-92
2022/06/19 09:40:28;;;;;;;7.13;4.55;;;25.10;99.10;;;;;;10455389;28;20780;-91
2022/06/19 09:45:46;;;;;;;5.68;4.80;;;25.30;98.70;;;;;;10453935;28;20246;-91
2022/06/19 09:50:51;;;;;;;13.88;5.50;;;25.10;99.60;;;;;;10437750;28;20284;-91
2022/06/19 09:56:04;;;;;;;6.35;5.45;;;24.70;99.90;;;;;;10421189;28;20210;-91
2022/06/19 10:01:07;;;;;;;9.00;4.85;;;25.00;99.00;;;;;;10458947;28;20777;-92
2022/06/19 10:06:23;;;;;;;5.65;5.03;;;24.80;99.90;;;;;;10476403;28;20230;-92
2022/06/19 10:11:34;;;;;;;16.85;5.32;;;24.50;99.80;;;;;;10468035;28;20222;-91
2022/06/19 10:16:54;;;;;;;17.08;5.68;;;25.00;99.90;;;;;;10435899;28;20222;-92
2022/06/19 10:22:27;;;;;;;15.23;4.75;;;26.10;99.60;;;;;;10437319;28;20308;-91
2022/06/19 10:27:47;;;;;;;8.93;5.13;;;25.30;98.10;;;;;;10464216;28;20616;-92
2022/06/19 10:33:17;;;;;;;6.72;4.97;;;24.70;99.50;;;;;;10453595;28;20659;-90
2022/06/19 10:38:52;;;;;;;6.32;4.90;;;24.50;99.90;;;;;;10436037;28;20242;-91
2022/06/19 10:44:07;;;;;;;8.63;4.45;;;24.40;99.90;;;;;;10392899;28;21006;-91
2022/06/19 10:49:26;;;;;;;10.93;5.00;;;25.40;99.00;;;;;;10435721;28;20676;-91
2022/06/19 10:54:55;;;;;;;9.77;4.80;;;24.80;98.80;;;;;;10446721;28;20198;-91
2022/06/19 10:59:57;;;;;;;7.93;5.07;;;24.70;99.10;;;;;;10494374;28;20246;-92
2022/06/19 11:05:05;;;;;;;5.85;4.93;;;24.60;99.40;;;;;;10494134;28;20230;-91
2022/06/19 11:10:18;;;;;;;9.13;4.57;;;24.30;99.80;;;;;;10493710;28;20198;-91
2022/06/19 11:15:35;;;;;;;14.45;4.60;;;24.70;99.40;;;;;;10471571;28;20644;-95
2022/06/19 11:20:38;;;;;;;24.35;4.75;;;;;;;;;;10442075;28;20465;-91
2022/06/19 11:25:41;;;;;;;15.52;5.10;;;28.20;88.20;;;;;;10467607;28;20194;-91
2022/06/19 11:30:50;;;;;;;16.17;4.72;;;26.40;92.60;;;;;;10469255;28;20210;-91
2022/06/19 11:36:00;;;;;;;14.07;5.28;;;26.60;93.70;;;;;;10465956;28;20238;-92
2022/06/19 11:41:17;;;;;;;8.98;4.15;;;25.70;94.40;;;;;;10463747;28;20262;-91
2022/06/19 11:46:26;;;;;;;16.75;4.18;;;25.30;95.80;;;;;;10450494;28;20199;-92
2022/06/19 11:51:31;;;;;;;18.15;4.35;;;25.30;95.90;;;;;;10466298;28;20283;-91
2022/06/19 11:56:38;;;;;;;17.35;4.65;;;28.90;91.00;;;;;;10491321;28;20311;-91
2022/06/19 12:01:44;;;;;;;13.73;4.97;;;29.00;89.60;;;;;;10491661;28;20253;-89
2022/06/19 12:06:55;;;;;;;18.58;5.57;;;27.40;91.50;;;;;;10471755;28;20599;-91
2022/06/19 12:12:07;;;;;;;13.50;4.70;;;27.10;92.20;;;;;;10456999;28;20307;-90
2022/06/19 12:17:28;;;;;;;24.67;4.90;;;;;;;;;;10474092;28;20670;-89
2022/06/19 12:22:40;;;;;;;23.17;4.35;;;;;;;;;;10490385;28;20249;-87
2022/06/19 12:27:56;;;;;;;21.75;4.68;;;32.30;79.80;;;;;;10490897;28;20655;-88
2022/06/19 12:33:02;;;;;;;14.85;4.78;;;32.20;76.30;;;;;;10479951;28;20710;-88
2022/06/19 12:38:13;;;;;;;14.07;4.53;;;32.30;75.00;;;;;;10488086;28;20226;-89
2022/06/19 12:43:35;;;;;;;7.43;4.22;;;31.70;75.40;;;;;;10461687;28;20270;-88
2022/06/19 12:48:40;;;;;;;24.95;4.22;;;32.10;73.90;;;;;;10431564;28;20238;-89
2022/06/19 12:53:43;;;;;;;27.42;3.70;;;31.10;73.90;;;;;;10449685;28;20234;-89
2022/06/19 12:59:16;;;;;;;14.07;4.40;;;32.50;72.00;;;;;;10453095;28;20257;-89
2022/06/19 13:04:41;;;;;;;19.00;3.72;;;32.50;69.60;;;;;;10454080;28;20233;-89
2022/06/19 13:09:51;;;;;;;18.42;4.78;;;32.60;71.70;;;;;;10456582;28;20210;-90
2022/06/19 13:15:23;;;;;;;22.77;4.43;;;32.30;66.90;;;;;;10436770;28;20242;-90
2022/06/19 13:20:38;;;;;;;17.80;4.10;;;32.60;67.00;;;;;;10449289;28;20694;-89
2022/06/19 13:25:50;;;;;;;14.73;3.80;;;32.40;67.20;;;;;;10452950;28;20202;-89
2022/06/19 13:31:08;;;;;;;19.65;4.35;;;32.20;66.60;;;;;;10483345;28;20198;-90
2022/06/19 13:36:45;;;;;;;13.73;4.53;;;31.80;68.20;;;;;;10506435;28;20750;-90
2022/06/19 13:41:57;;;;;;;14.30;5.00;;;32.10;66.90;;;;;;10485448;28;20327;-90
2022/06/19 13:47:07;;;;;;;13.85;3.17;;;31.70;67.70;;;;;;10474102;28;20284;-89
2022/06/19 13:52:28;;;;;;;13.80;3.50;;;31.50;68.10;;;;;;10463890;28;20726;-89
2022/06/19 13:57:37;;;;;;;19.42;3.88;;;31.60;67.60;;;;;;10464076;28;20206;-89
2022/06/19 14:02:45;;;;;;;12.43;3.53;;;32.10;66.30;;;;;;10475674;28;20258;-89
2022/06/19 14:08:00;;;;;;;11.20;3.70;;;32.60;63.80;;;;;;10461326;28;20591;-90
2022/06/19 14:13:15;;;;;;;15.43;4.05;;;31.90;67.80;;;;;;10478348;28;20238;-90
2022/06/19 14:18:34;;;;;;;13.88;4.07;;;31.40;69.20;;;;;;10452894;28;20675;-90
2022/06/19 14:23:56;;;;;;;15.27;4.38;;;29.50;73.60;;;;;;10479963;28;20229;-90
2022/06/19 14:29:31;;;;;;;15.60;4.43;;;29.90;71.90;;;;;;10493124;28;20258;-90
2022/06/19 14:34:50;;;;;;;16.73;5.68;;;31.40;69.40;;;;;;10458869;28;20234;-88
2022/06/19 14:39:55;;;;;;;14.25;4.80;;;32.30;66.40;;;;;;10524103;28;20672;-89
2022/06/19 14:45:03;;;;;;;16.00;4.07;;;32.10;64.70;;;;;;10483509;28;20283;-89
2022/06/19 14:50:09;;;;;;;11.38;3.53;;;32.30;65.70;;;;;;10452876;28;20265;-90
2022/06/19 14:55:22;;;;;;;7.93;3.95;;;31.60;65.40;;;;;;10448675;28;20626;-89
2022/06/19 15:01:02;;;;;;;14.55;3.65;;;28.30;72.00;;;;;;10439770;28;20273;-89
2022/06/19 15:06:36;;;;;;;15.98;4.70;;;28.40;73.60;;;;;;10448357;28;20243;-89
2022/06/19 15:11:40;;;;;;;14.82;3.72;;;29.80;71.70;;;;;;10433555;28;20630;-89
2022/06/19 15:17:18;;;;;;;12.88;3.22;;;30.20;67.10;;;;;;10478949;28;20235;-88
2022/06/19 15:22:27;;;;;;;21.92;4.28;;;30.80;67.30;;;;;;10441283;28;20307;-88
2022/06/19 15:27:39;;;;;;;12.70;3.78;;;30.70;65.70;;;;;;10488691;28;20283;-88
2022/06/19 15:32:47;;;;;;;16.05;3.72;;;30.60;68.40;;;;;;10492011;28;20201;-88
2022/06/19 15:37:52;;;;;;;9.60;3.13;;;30.60;66.60;;;;;;10475012;28;20230;-88
2022/06/19 15:43:16;;;;;;;7.28;3.50;;;30.80;67.90;;;;;;10471914;28;20262;-88
2022/06/19 15:48:28;;;;;;;6.70;3.40;;;29.30;70.90;;;;;;10470988;28;20271;-88
2022/06/19 15:53:36;;;;;;;13.95;2.70;;;30.00;68.40;;;;;;10452903;28;20234;-88
2022/06/19 15:58:44;;;;;;;13.85;3.42;;;30.70;65.40;;;;;;10449525;28;20242;-88
2022/06/19 16:04:04;;;;;;;13.00;3.88;;;30.20;66.70;;;;;;10436435;28;20226;-88
2022/06/19 16:09:19;;;;;;;13.15;3.30;;;30.30;66.90;;;;;;10465377;28;20313;-89
2022/06/19 16:14:26;;;;;;;16.90;3.42;;;31.20;64.50;;;;;;10472033;28;20248;-88
2022/06/19 16:19:32;;;;;;;13.60;3.38;;;31.50;63.30;;;;;;10477183;28;20249;-88
2022/06/19 16:25:04;;;;;;;11.68;3.42;;;30.40;68.50;;;;;;10467565;28;20790;-90
2022/06/19 16:30:07;;;;;;;13.13;3.47;;;29.80;68.20;;;;;;10485737;28;20677;-89
2022/06/19 16:46:30;;;;;;;16.55;2.78;;;30.90;66.40;;;;;;10747720;22;10001873;-89
2022/06/19 16:51:39;;;;;;;10.90;3.03;;;31.20;65.00;;;;;;10446488;28;20299;-90
2022/06/19 16:56:42;;;;;;;14.27;4.20;;;31.80;64.70;;;;;;10430818;28;20639;-89
2022/06/19 17:01:47;;;;;;;13.00;3.47;;;31.80;64.10;;;;;;10430340;28;20702;-90
2022/06/19 17:06:53;;;;;;;12.02;3.25;;;31.70;63.50;;;;;;10447656;28;20599;-89
2022/06/19 17:12:05;;;;;;;10.65;3.60;;;31.50;64.90;;;;;;10378328;22;20264;-80
2022/06/19 17:17:11;;;;;;;10.23;3.60;;;;;;;;;;10372004;28;20300;-78
2022/06/19 17:22:13;;;;;;;13.60;3.40;;;28.80;70.80;;;;;;10364098;28;20259;-78
2022/06/19 17:27:22;;;;;;;13.57;3.78;;;29.40;73.30;;;;;;10356441;28;20339;-78
2022/06/19 17:32:40;;;;;;;32.08;6.85;;;29.80;71.90;;;;;;10372623;28;20228;-78
2022/06/19 17:37:47;;;;;;;16.33;4.10;;;30.10;79.20;;;;;;10372155;28;20204;-78
2022/06/19 17:42:56;;;;;;;31.13;8.63;;;30.20;70.80;;;;;;10007498;28;10000400;-78
2022/06/19 17:48:00;;;;;;;25.52;7.13;;;30.30;75.90;;;;;;9689783;28;10000484;-77
2022/06/19 17:53:23;;;;;;;14.35;4.93;;;28.40;81.10;;;;;;10369775;28;20236;-78
2022/06/19 17:58:26;;;;;;;16.95;4.78;;;27.70;82.00;;;;;;10368144;28;20232;-78
2022/06/19 18:03:32;;;;;;;28.52;6.68;;;27.10;84.40;;;;;;10368786;28;20251;-78
2022/06/19 18:08:41;;;;;;;23.77;5.90;;;28.50;87.10;;;;;;10368713;28;20634;-77
2022/06/19 18:13:49;;;;;;;31.50;6.72;;;28.20;91.00;;;;;;10367664;28;20271;-77
2022/06/19 18:18:54;;;;;;;16.88;5.72;;;27.50;91.70;;;;;;10367219;28;20309;-77
2022/06/19 18:24:05;;;;;;;20.45;6.20;;;26.80;91.00;;;;;;10365877;28;20255;-77
2022/06/19 18:29:43;;;;;;;11.75;5.65;;;26.10;94.20;;;;;;10368172;28;20232;-77
2022/06/19 18:34:48;;;;;;;16.77;5.47;;;25.60;95.50;;;;;;10332753;28;20251;-77
2022/06/19 18:40:13;;;;;;;8.63;4.72;;;;;;;;;;10366436;28;20248;-76
2022/06/19 18:45:15;;;;;;;12.18;5.00;;;25.00;96.10;;;;;;10364677;28;20254;-77
2022/06/19 18:50:18;;;;;;;12.23;5.45;;;24.80;97.00;;;;;;10366213;28;20276;-77
2022/06/19 18:55:31;;;;;;;14.20;5.03;;;24.70;97.60;;;;;;10369290;28;20236;-77
2022/06/19 19:00:33;;;;;;;10.80;5.15;;;24.60;97.50;;;;;;10368582;28;20260;-81
2022/06/19 19:05:43;;;;;;;14.05;4.93;;;24.50;97.70;;;;;;10369771;28;20228;-77
2022/06/19 19:10:49;;;;;;;12.32;4.57;;;24.50;98.20;;;;;;10367651;28;20264;-77
2022/06/19 19:15:53;;;;;;;12.43;6.15;;;24.40;98.50;;;;;;10366240;28;20235;-78
2022/06/19 19:20:56;;;;;;;17.05;5.88;;;24.40;98.50;;;;;;10364665;28;20773;-78
2022/06/19 19:25:58;;;;;;;9.20;4.65;;;24.30;98.80;;;;;;10368456;28;20278;-77
2022/06/19 19:31:03;;;;;;;14.05;4.93;;;24.30;98.90;;;;;;10357036;28;20787;-78
2022/06/19 19:36:07;;;;;;;16.15;5.65;;;24.20;99.40;;;;;;10366489;28;20224;-78
2022/06/19 19:41:13;;;;;;;10.18;5.20;;;24.20;99.90;;;;;;10387988;22;20236;31
2022/06/19 19:46:20;;;;;;;10.23;4.25;;;24.10;99.90;;;;;;10314840;28;20266;-81
2022/06/19 19:51:24;;;;;;;8.07;4.72;;;24.00;99.90;;;;;;10336842;28;20290;-77
2022/06/19 19:56:28;;;;;;;9.10;4.93;;;23.90;99.90;;;;;;10364573;28;20250;-78
2022/06/19 20:01:30;;;;;;;10.75;5.63;;;23.60;99.90;;;;;;10342621;28;20251;-77
2022/06/19 20:11:56;;;;;;;13.70;4.63;;;23.30;99.90;;;;;;10366630;28;20250;-75
2022/06/19 20:16:59;;;;;;;7.28;4.07;;;23.30;99.90;;;;;;10349054;28;20232;-76
2022/06/19 20:22:09;;;;;;;6.13;4.38;;;23.10;99.90;;;;;;10334967;28;20282;-76
2022/06/19 20:27:15;;;;;;;7.57;4.78;;;23.10;99.90;;;;;;10350035;28;20661;-79
2022/06/19 20:32:25;;;;;;;7.35;4.38;;;23.00;99.90;;;;;;10367517;28;20293;-80
2022/06/19 20:37:31;;;;;;;20.40;7.00;;;23.10;99.90;;;;;;10332087;28;20228;-82
2022/06/19 20:42:34;;;;;;;8.10;4.90;;;23.00;99.90;;;;;;10349189;28;20260;-76
2022/06/19 20:47:41;;;;;;;7.57;4.40;;;23.10;99.90;;;;;;10360058;28;20267;-76
2022/06/19 20:52:44;;;;;;;16.35;7.43;;;23.10;99.90;;;;;;10334536;28;20306;-76
2022/06/19 20:57:47;;;;;;;13.50;6.32;;;;;;;;;;10374099;28;20219;-79
2022/06/19 21:02:50;;;;;;;7.50;5.88;;;22.50;99.90;;;;;;10373823;28;20642;-77
2022/06/19 21:07:57;;;;;;;5.90;4.10;;;22.50;99.90;;;;;;10373917;28;20606;-77
2022/06/19 21:13:00;;;;;;;5.72;4.60;;;22.70;99.90;;;;;;10364786;28;20227;-77
2022/06/19 21:18:03;;;;;;;7.95;5.00;;;22.90;99.90;;;;;;10369619;28;20235;-77
2022/06/19 21:23:07;;;;;;;9.63;6.68;;;23.00;99.90;;;;;;10371663;28;20251;-78
2022/06/19 21:28:16;;;;;;;9.18;5.07;;;22.90;99.90;;;;;;10372564;28;20777;-77
2022/06/19 21:33:22;;;;;;;8.77;4.93;;;22.80;99.90;;;;;;10367583;28;20235;-77
2022/06/19 21:38:30;;;;;;;10.35;6.32;;;22.80;99.90;;;;;;10369936;28;20614;-77
2022/06/19 21:43:33;;;;;;;9.90;5.85;;;22.70;99.90;;;;;;10370966;28;20666;-76
2022/06/19 21:48:36;;;;;;;9.80;4.78;;;22.60;99.90;;;;;;10372660;28;20247;-76
2022/06/19 21:53:39;;;;;;;9.93;6.32;;;22.40;99.90;;;;;;10370269;28;20228;-78
2022/06/19 21:58:42;;;;;;;5.75;3.90;;;22.30;99.90;;;;;;10368877;28;20209;-77
2022/06/19 22:03:45;;;;;;;12.23;6.40;;;22.50;99.90;;;;;;10370217;28;20782;-77
2022/06/19 22:08:49;;;;;;;12.52;5.25;;;22.20;99.90;;;;;;10334451;28;20235;-77
2022/06/19 22:13:54;;;;;;;7.68;4.63;;;22.40;99.90;;;;;;10370781;28;20261;-77
2022/06/19 22:18:57;;;;;;;15.32;7.68;;;22.30;99.90;;;;;;10367204;28;20630;-77
2022/06/19 22:24:01;;;;;;;11.07;6.10;;;22.30;99.90;;;;;;10353080;28;20297;-77
2022/06/19 22:29:06;;;;;;;12.55;7.15;;;22.30;99.90;;;;;;10334835;28;20582;-77
2022/06/19 22:34:10;;;;;;;10.75;8.35;;;22.10;99.90;;;;;;10369631;28;20235;-78
2022/06/19 22:39:15;;;;;;;8.10;5.25;;;22.00;99.90;;;;;;10369421;28;20239;-78
2022/06/19 22:44:24;;;;;;;9.05;6.38;;;22.00;99.90;;;;;;10351331;28;20721;-78
2022/06/19 22:49:28;;;;;;;14.90;8.43;;;22.10;99.90;;;;;;10367260;28;20235;-77
2022/06/19 22:54:31;;;;;;;15.07;9.23;;;21.90;99.90;;;;;;10351820;28;20282;-78
2022/06/19 23:05:07;;;;;;;7.63;5.78;;;21.50;99.90;;;;;;10368741;28;20661;-77
2022/06/19 23:10:12;;;;;;;10.63;5.57;;;22.00;99.90;;;;;;10368197;28;20677;-77
2022/06/19 23:15:14;;;;;;;6.22;4.63;;;22.20;99.90;;;;;;10367542;28;20290;-77
2022/06/19 23:20:27;;;;;;;5.05;4.57;;;22.30;99.90;;;;;;10328377;28;20263;-77
2022/06/19 23:25:29;;;;;;;6.20;4.53;;;22.30;99.90;;;;;;10328091;28;20283;-77
2022/06/19 23:30:32;;;;;;;16.15;7.00;;;22.60;99.90;;;;;;10339646;28;20275;-78
2022/06/19 23:35:35;;;;;;;6.50;4.53;;;22.40;99.90;;;;;;10328026;28;20271;-78
2022/06/19 23:40:38;;;;;;;6.43;4.88;;;22.10;99.90;;;;;;10333814;28;20691;-78
2022/06/19 23:45:41;;;;;;;4.55;4.15;;;22.00;99.90;;;;;;10367390;28;20659;-77
2022/06/19 23:50:43;;;;;;;5.07;4.60;;;22.20;99.90;;;;;;10369079;28;20282;-77
2022/06/19 23:55:47;;;;;;;12.90;7.97;;;22.00;99.90;;;;;;10368143;28;20626;-78
